createdAt,value
2022-12-03T06:34:15.869Z,0.857143
2022-12-03T06:35:15.898Z,0.857143
2022-12-03T06:36:19.967Z,0.857143
2022-12-03T06:37:15.956Z,1.71429
2022-12-03T06:38:15.985Z,1.71429
2022-12-03T06:39:16.013Z,2.5
2022-12-03T06:40:16.039Z,2.5
2022-12-03T06:41:16.077Z,3.35714
2022-12-03T06:42:16.108Z,4.21429
2022-12-03T06:43:16.136Z,4.21429
2022-12-03T06:44:16.165Z,5
2022-12-03T06:45:16.188Z,5.85714
2022-12-03T06:46:16.275Z,6.71429
2022-12-03T06:47:16.245Z,6.71429
2022-12-03T06:48:16.275Z,7.5
2022-12-03T06:49:16.313Z,9.21429
2022-12-03T06:50:16.345Z,10
2022-12-03T06:51:16.372Z,11.7143
2022-12-03T06:52:16.408Z,12.5
2022-12-03T06:53:16.441Z,14.2143
2022-12-03T06:54:16.479Z,15.8571
2022-12-03T06:55:16.510Z,17.5
2022-12-03T06:56:20.049Z,19.2143
2022-12-03T06:57:16.562Z,19.2143
2022-12-03T06:58:16.589Z,20.8571
2022-12-03T06:59:16.624Z,23.3571
2022-12-03T07:00:16.643Z,25.8571
2022-12-03T07:01:16.724Z,27.5
2022-12-03T07:02:16.710Z,30.8571
2022-12-03T07:03:16.778Z,28.3571
2022-12-03T07:04:16.770Z,29.2143
2022-12-03T07:05:16.803Z,33.3571
2022-12-03T07:06:16.846Z,36.7143
2022-12-03T07:07:16.865Z,39.2143
2022-12-03T07:08:16.989Z,39.2143
2022-12-03T07:09:16.922Z,44.2143
2022-12-03T07:10:16.963Z,50.8571
2022-12-03T07:11:16.995Z,54.2143
2022-12-03T07:12:17.028Z,50
2022-12-03T07:13:17.068Z,53.3571
2022-12-03T07:14:17.096Z,55
2022-12-03T07:15:17.132Z,65.8571
2022-12-03T07:16:17.184Z,65
2022-12-03T07:17:17.196Z,77.5
2022-12-03T07:18:17.231Z,76.7143
2022-12-03T07:19:17.259Z,83.3571
2022-12-03T07:20:17.281Z,90
2022-12-03T07:21:17.318Z,98.3571
2022-12-03T07:22:17.352Z,90.8571
2022-12-03T07:23:17.379Z,100
2022-12-03T07:24:17.411Z,103.357
2022-12-03T07:25:22.923Z,111.714
2022-12-03T07:26:17.476Z,114.214
2022-12-03T07:27:17.504Z,123.357
2022-12-03T07:28:17.527Z,120.857
2022-12-03T07:29:17.570Z,141.714
2022-12-03T07:30:17.609Z,145.857
2022-12-03T07:31:17.689Z,155
2022-12-03T07:32:17.654Z,160.857
2022-12-03T07:33:17.686Z,143.357
2022-12-03T07:34:17.717Z,142.5
2022-12-03T07:35:17.748Z,156.714
2022-12-03T07:36:17.788Z,160.857
2022-12-03T07:37:22.877Z,151.714
2022-12-03T07:38:17.831Z,162.5
2022-12-03T07:39:17.869Z,168.357
2022-12-03T07:40:17.894Z,175
2022-12-03T07:41:17.933Z,183.357
2022-12-03T07:42:17.969Z,190
2022-12-03T07:43:17.979Z,195
2022-12-03T07:44:18.011Z,198.357
2022-12-03T07:45:18.044Z,201.714
2022-12-03T07:46:18.171Z,210
2022-12-03T07:47:18.099Z,215
2022-12-03T07:48:18.119Z,215
2022-12-03T07:49:18.156Z,217.5
2022-12-03T07:50:18.182Z,220.857
2022-12-03T07:51:18.234Z,218.357
2022-12-03T07:52:18.245Z,215
2022-12-03T07:53:18.278Z,213.357
2022-12-03T07:54:18.301Z,215.857
2022-12-03T07:55:18.337Z,223.357
2022-12-03T07:56:18.369Z,228.357
2022-12-03T07:57:18.404Z,229.214
2022-12-03T07:58:18.432Z,220
2022-12-03T07:59:18.460Z,224.214
2022-12-03T08:00:18.506Z,230
2022-12-03T08:01:18.617Z,235
2022-12-03T08:02:21.555Z,240
2022-12-03T08:03:18.608Z,240
2022-12-03T08:04:18.642Z,238.357
2022-12-03T08:05:18.676Z,233.357
2022-12-03T08:06:18.714Z,237.5
2022-12-03T08:07:18.741Z,243.357
2022-12-03T08:08:18.841Z,240
2022-12-03T08:09:18.800Z,249.214
2022-12-03T08:10:18.839Z,250
2022-12-03T08:11:18.872Z,229.214
2022-12-03T08:12:18.912Z,233.357
2022-12-03T08:13:18.927Z,228.357
2022-12-03T08:14:18.955Z,239.214
2022-12-03T08:15:18.983Z,260.857
2022-12-03T08:16:19.087Z,255
2022-12-03T08:17:19.059Z,276.714
2022-12-03T08:18:19.091Z,269.214
2022-12-03T08:19:19.145Z,276.714
2022-12-03T08:20:19.148Z,275.857
2022-12-03T08:21:19.187Z,272.5
2022-12-03T08:22:19.225Z,285
2022-12-03T08:23:19.258Z,285
2022-12-03T08:24:19.288Z,277.5
2022-12-03T08:25:19.312Z,317.5
2022-12-03T08:26:19.339Z,303.357
2022-12-03T08:27:19.372Z,315.857
2022-12-03T08:28:19.402Z,330
2022-12-03T08:29:19.423Z,361.714
2022-12-03T08:30:19.444Z,360.857
2022-12-03T08:31:19.587Z,368.357
2022-12-03T08:32:19.593Z,373.357
2022-12-03T08:33:19.538Z,383.357
2022-12-03T08:34:19.572Z,398.357
2022-12-03T08:35:19.603Z,390
2022-12-03T08:36:19.632Z,389.214
2022-12-03T08:37:19.666Z,387.5
2022-12-03T08:38:19.692Z,383.357
2022-12-03T08:39:19.737Z,366.714
2022-12-03T08:40:19.763Z,383.357
2022-12-03T08:41:19.794Z,370.857
2022-12-03T08:42:19.832Z,355.857
2022-12-03T08:43:19.873Z,380.857
2022-12-03T08:44:19.896Z,378.357
2022-12-03T08:45:19.930Z,390.857
2022-12-03T08:46:19.989Z,402.5
2022-12-03T08:47:20.002Z,416.714
2022-12-03T08:48:20.030Z,416.714
2022-12-03T08:49:20.075Z,414.214
2022-12-03T08:50:20.102Z,411.714
2022-12-03T08:51:20.129Z,413.357
2022-12-03T08:52:20.164Z,401.714
2022-12-03T08:53:20.199Z,376.714
2022-12-03T08:54:20.235Z,392.5
2022-12-03T08:55:20.262Z,388.357
2022-12-03T08:56:20.304Z,385.857
2022-12-03T08:57:20.312Z,380.857
2022-12-03T08:58:20.347Z,385
2022-12-03T08:59:20.374Z,390
2022-12-03T09:00:20.403Z,395.857
2022-12-03T09:01:20.510Z,404.214
2022-12-03T09:02:20.460Z,421.714
2022-12-03T09:03:20.489Z,441.714
2022-12-03T09:04:20.673Z,475.857
2022-12-03T09:05:20.547Z,500.857
2022-12-03T09:06:20.584Z,543.357
2022-12-03T09:07:20.603Z,566.714
2022-12-03T09:08:20.684Z,615.857
2022-12-03T09:09:20.668Z,680.857
2022-12-03T09:10:20.696Z,711.714
2022-12-03T09:11:20.731Z,725.857
2022-12-03T09:12:20.757Z,724.214
2022-12-03T09:13:20.783Z,757.5
2022-12-03T09:14:20.824Z,785.857
2022-12-03T09:15:20.856Z,803.357
2022-12-03T09:16:20.975Z,811.714
2022-12-03T09:17:20.894Z,818.357
2022-12-03T09:18:20.930Z,812.5
2022-12-03T09:19:20.970Z,860.857
2022-12-03T09:20:21.004Z,856.714
2022-12-03T09:21:21.027Z,865
2022-12-03T09:22:21.072Z,865.857
2022-12-03T09:23:21.086Z,879.214
2022-12-03T09:24:21.117Z,883.357
2022-12-03T09:25:21.144Z,882.5
2022-12-03T09:26:21.180Z,900.857
2022-12-03T09:27:21.213Z,890.857
2022-12-03T09:28:21.242Z,890.857
2022-12-03T09:29:21.277Z,920.857
2022-12-03T09:30:21.303Z,960
2022-12-03T09:31:21.394Z,1001.71
2022-12-03T09:32:21.412Z,1038.36
2022-12-03T09:33:21.391Z,1060.86
2022-12-03T09:34:21.424Z,1089.21
2022-12-03T09:35:21.455Z,1117.5
2022-12-03T09:36:21.487Z,1176.71
2022-12-03T09:37:21.510Z,1229.21
2022-12-03T09:38:21.544Z,1312.5
2022-12-03T09:39:21.577Z,1380.86
2022-12-03T09:40:21.589Z,1416.71
2022-12-03T09:41:21.631Z,1495.86
2022-12-03T09:42:21.662Z,1564.21
2022-12-03T09:43:21.696Z,1620.86
2022-12-03T09:44:21.727Z,1671.71
2022-12-03T09:45:21.757Z,1760
2022-12-03T09:46:21.897Z,1901.71
2022-12-03T09:47:21.822Z,1913.36
2022-12-03T09:48:21.847Z,1980.86
2022-12-03T09:49:22.017Z,2128.36
2022-12-03T09:50:22.020Z,2137.5
2022-12-03T09:51:21.941Z,2173.36
2022-12-03T09:52:21.973Z,2245
2022-12-03T09:53:21.993Z,2281.71
2022-12-03T09:54:22.026Z,2285.86
2022-12-03T09:55:22.063Z,2289.21
2022-12-03T09:56:22.087Z,2271.71
2022-12-03T09:57:22.120Z,2194.21
2022-12-03T09:58:22.145Z,2160
2022-12-03T09:59:22.172Z,2129.21
2022-12-03T10:00:22.196Z,2035.86
2022-12-03T10:01:22.370Z,1870
2022-12-03T10:02:22.250Z,1800
2022-12-03T10:03:28.119Z,1944.21
2022-12-03T10:04:22.399Z,1903.36
2022-12-03T10:05:23.349Z,1837.5
2022-12-03T10:06:22.377Z,1646.71
2022-12-03T10:07:22.410Z,1528.36
2022-12-03T10:08:22.513Z,1559.21
2022-12-03T10:09:22.487Z,1495
2022-12-03T10:10:22.539Z,1345.86
2022-12-03T10:11:22.560Z,1254.21
2022-12-03T10:12:22.583Z,1112.5
2022-12-03T10:13:25.852Z,1147.5
2022-12-03T10:14:22.630Z,1126.71
2022-12-03T10:15:22.666Z,1107.5
2022-12-03T10:16:22.729Z,1035.86
2022-12-03T10:17:22.725Z,1055
2022-12-03T10:18:22.767Z,995
2022-12-03T10:19:22.815Z,965
2022-12-03T10:20:22.824Z,980
2022-12-03T10:21:22.945Z,945.857
2022-12-03T10:22:22.977Z,895
2022-12-03T10:23:23.012Z,862.5
2022-12-03T10:24:23.058Z,969.214
2022-12-03T10:25:23.076Z,1047.5
2022-12-03T10:26:23.103Z,1046.71
2022-12-03T10:27:23.128Z,1009.21
2022-12-03T10:28:23.165Z,1014.21
2022-12-03T10:29:26.815Z,1020.86
2022-12-03T10:30:23.218Z,941.714
2022-12-03T10:31:23.317Z,978.357
2022-12-03T10:32:23.286Z,958.357
2022-12-03T10:33:23.323Z,903.357
2022-12-03T10:34:23.354Z,868.357
2022-12-03T10:35:23.380Z,930.857
2022-12-03T10:36:23.433Z,945
2022-12-03T10:37:23.431Z,1054.21
2022-12-03T10:38:23.472Z,997.5
2022-12-03T10:39:23.504Z,1053.36
2022-12-03T10:40:23.513Z,944.214
2022-12-03T10:41:23.551Z,948.357
2022-12-03T10:42:23.591Z,981.714
2022-12-03T10:43:23.624Z,895
2022-12-03T10:44:23.648Z,847.5
2022-12-03T10:45:23.683Z,820
2022-12-03T10:46:23.860Z,872.5
2022-12-03T10:47:23.935Z,965
2022-12-03T10:48:23.759Z,836.714
2022-12-03T10:49:23.784Z,835.857
2022-12-03T10:50:23.819Z,845.857
2022-12-03T10:51:23.832Z,833.357
2022-12-03T10:52:26.029Z,763.357
2022-12-03T10:53:23.892Z,870.857
2022-12-03T10:54:23.954Z,835
2022-12-03T10:55:23.978Z,747.5
2022-12-03T10:56:24.017Z,805
2022-12-03T10:57:24.025Z,765.857
2022-12-03T10:58:24.054Z,772.5
2022-12-03T10:59:24.080Z,775
2022-12-03T11:00:24.110Z,700.857
2022-12-03T11:01:24.206Z,775.857
2022-12-03T11:02:24.175Z,785.857
2022-12-03T11:03:24.338Z,744.214
2022-12-03T11:04:24.242Z,721.714
2022-12-03T11:05:24.265Z,740
2022-12-03T11:06:24.298Z,730
2022-12-03T11:07:24.329Z,703.357
2022-12-03T11:08:24.363Z,733.357
2022-12-03T11:09:24.392Z,734.214
2022-12-03T11:10:24.433Z,706.714
2022-12-03T11:11:24.467Z,695
2022-12-03T11:12:24.494Z,667.5
2022-12-03T11:13:24.517Z,682.5
2022-12-03T11:14:24.550Z,654.214
2022-12-03T11:15:24.586Z,704.214
2022-12-03T11:16:24.648Z,707.5
2022-12-03T11:17:24.646Z,720.857
2022-12-03T11:18:24.688Z,720.857
2022-12-03T11:19:24.721Z,680.857
2022-12-03T11:20:24.749Z,693.357
2022-12-03T11:21:24.776Z,685
2022-12-03T11:22:24.802Z,678.357
2022-12-03T11:23:24.877Z,616.714
2022-12-03T11:24:24.901Z,630
2022-12-03T11:25:24.940Z,621.714
2022-12-03T11:26:24.967Z,632.5
2022-12-03T11:27:24.997Z,582.5
2022-12-03T11:28:25.025Z,534.214
2022-12-03T11:29:25.055Z,538.357
2022-12-03T11:30:25.090Z,591.714
2022-12-03T11:31:25.229Z,545.857
2022-12-03T11:32:29.303Z,489.214
2022-12-03T11:33:25.165Z,519.214
2022-12-03T11:34:25.201Z,510.857
2022-12-03T11:35:25.229Z,520
2022-12-03T11:36:47.797Z,541.714
2022-12-03T11:37:25.296Z,565.857
2022-12-03T11:38:25.328Z,567.5
2022-12-03T11:39:25.356Z,579.214
2022-12-03T11:40:25.389Z,564.214
2022-12-03T11:41:25.415Z,635
2022-12-03T11:42:25.565Z,637.5
2022-12-03T11:43:25.487Z,636.714
2022-12-03T11:44:25.508Z,646.714
2022-12-03T11:45:25.537Z,617.5
2022-12-03T11:46:25.610Z,571.714
2022-12-03T11:47:25.608Z,560.857
2022-12-03T11:48:25.632Z,544.214
2022-12-03T11:49:25.675Z,574.214
2022-12-03T11:50:25.700Z,582.5
2022-12-03T11:51:25.736Z,586.714
2022-12-03T11:52:25.762Z,560
2022-12-03T11:53:25.796Z,530.857
2022-12-03T11:54:25.818Z,538.357
2022-12-03T11:55:25.855Z,541.714
2022-12-03T11:56:25.885Z,560.857
2022-12-03T11:57:25.918Z,573.357
2022-12-03T11:58:25.951Z,569.214
2022-12-03T11:59:25.978Z,607.5
2022-12-03T12:00:26.005Z,635
2022-12-03T12:01:26.030Z,665.857
2022-12-03T12:02:26.206Z,625.857
2022-12-03T12:03:26.255Z,575
2022-12-03T12:04:26.265Z,627.5
2022-12-03T12:05:26.201Z,632.5
2022-12-03T12:06:26.231Z,565.857
2022-12-03T12:07:26.334Z,555
2022-12-03T12:08:26.294Z,551.714
2022-12-03T12:09:26.320Z,540
2022-12-03T12:10:26.430Z,515.857
2022-12-03T12:11:26.468Z,527.5
2022-12-03T12:12:26.489Z,551.714
2022-12-03T12:13:14.838Z,557.5
2022-12-03T12:14:14.873Z,543.357
2022-12-03T12:15:15.818Z,510.857
2022-12-03T12:16:15.887Z,472.5
2022-12-03T12:16:56.488Z,473.357
2022-12-03T12:17:56.365Z,486.714
2022-12-03T12:18:56.444Z,505
2022-12-03T12:19:56.667Z,540.857
2022-12-03T12:20:07.974Z,534.214
2022-12-03T12:21:08.055Z,500.857
2022-12-03T12:21:39.669Z,499.214
2022-12-03T12:22:39.696Z,499.214
2022-12-03T12:23:39.721Z,553.357
2022-12-03T12:24:39.757Z,485.857
2022-12-03T12:25:39.798Z,493.357
2022-12-03T12:26:39.823Z,475
2022-12-03T12:27:39.847Z,543.357
2022-12-03T12:28:39.884Z,569.214
2022-12-03T12:29:39.918Z,481.714
2022-12-03T12:30:39.947Z,492.5
2022-12-03T12:31:40.012Z,545.857
2022-12-03T12:32:40.007Z,542.5
2022-12-03T12:33:40.042Z,541.714
2022-12-03T12:34:40.075Z,515
2022-12-03T12:35:40.138Z,458.357
2022-12-03T12:36:40.132Z,456.714
2022-12-03T12:37:44.924Z,450.857
2022-12-03T12:38:40.202Z,424.214
2022-12-03T12:39:40.245Z,407.5
2022-12-03T12:40:40.274Z,407.5
2022-12-03T12:41:40.373Z,465
2022-12-03T12:42:40.321Z,459.214
2022-12-03T12:43:40.351Z,444.214
2022-12-03T12:44:40.381Z,395.857
2022-12-03T12:45:40.413Z,388.357
2022-12-03T12:46:47.841Z,434.214
2022-12-03T12:47:40.494Z,475.857
2022-12-03T12:48:40.499Z,480
2022-12-03T12:49:40.534Z,509.214
2022-12-03T12:50:40.561Z,483.357
2022-12-03T12:51:40.603Z,481.714
2022-12-03T12:52:40.623Z,477.5
2022-12-03T12:53:40.648Z,492.5
2022-12-03T12:54:40.692Z,491.714
2022-12-03T12:55:40.711Z,535.857
2022-12-03T12:56:40.744Z,543.357
2022-12-03T12:57:40.784Z,534.214
2022-12-03T12:58:40.833Z,495.857
2022-12-03T12:59:40.839Z,438.357
2022-12-03T13:00:40.924Z,410
2022-12-03T13:01:41.051Z,427.5
2022-12-03T13:02:41.161Z,445.857
2022-12-03T13:03:40.991Z,444.214
2022-12-03T13:04:40.995Z,406.714
2022-12-03T13:05:41.179Z,395.857
2022-12-03T13:06:41.216Z,398.357
2022-12-03T13:07:41.277Z,420.857
2022-12-03T13:08:41.356Z,419.214
2022-12-03T13:09:41.317Z,422.5
2022-12-03T13:10:41.354Z,446.714
2022-12-03T13:11:41.470Z,454.214
2022-12-03T13:12:41.420Z,434.214
2022-12-03T13:13:44.051Z,408.357
2022-12-03T13:14:41.489Z,432.5
2022-12-03T13:15:41.517Z,427.5
2022-12-03T13:16:41.589Z,423.357
2022-12-03T13:17:41.558Z,416.714
2022-12-03T13:18:41.590Z,384.214
2022-12-03T13:20:00.604Z,405.857
2022-12-03T13:20:41.674Z,423.357
2022-12-03T13:21:41.681Z,429.214
2022-12-03T13:22:41.714Z,426.714
2022-12-03T13:23:41.758Z,430
2022-12-03T13:24:41.799Z,426.714
2022-12-03T13:26:01.079Z,389.214
2022-12-03T13:26:41.851Z,388.357
2022-12-03T13:27:41.883Z,394.214
2022-12-03T13:28:41.932Z,397.5
2022-12-03T13:29:41.982Z,411.714
2022-12-03T13:30:41.978Z,350.857
2022-12-03T13:31:44.183Z,333.357
2022-12-03T13:32:42.051Z,355.857
2022-12-03T13:33:42.083Z,375
2022-12-03T13:34:42.134Z,369.214
2022-12-03T13:35:42.142Z,336.714
2022-12-03T13:36:42.174Z,307.5
2022-12-03T13:37:42.196Z,279.214
2022-12-03T13:38:42.227Z,290.857
2022-12-03T13:39:42.270Z,266.714
2022-12-03T13:40:42.307Z,261.714
2022-12-03T13:41:42.375Z,280.857
2022-12-03T13:42:42.462Z,291.714
2022-12-03T13:43:44.537Z,273.357
2022-12-03T13:44:42.425Z,293.357
2022-12-03T13:45:42.496Z,328.357
2022-12-03T13:46:42.493Z,306.714
2022-12-03T13:47:42.539Z,300.857
2022-12-03T13:48:42.533Z,304.214
2022-12-03T13:49:42.568Z,280.857
2022-12-03T13:50:42.601Z,250.857
2022-12-03T13:51:42.632Z,235
2022-12-03T13:52:42.687Z,215
2022-12-03T13:53:42.720Z,190
2022-12-03T13:54:42.724Z,185.857
2022-12-03T13:55:42.756Z,182.5
2022-12-03T13:56:42.794Z,185
2022-12-03T13:57:42.818Z,181.714
2022-12-03T13:58:42.917Z,169.214
2022-12-03T13:59:42.879Z,155.857
2022-12-03T14:00:42.941Z,140.857
2022-12-03T14:01:43.074Z,131.714
2022-12-03T14:02:43.109Z,122.5
2022-12-03T14:03:43.017Z,114.214
2022-12-03T14:04:43.039Z,106.714
2022-12-03T14:05:43.101Z,102.5
2022-12-03T14:06:43.106Z,103.357
2022-12-03T14:07:43.224Z,103.357
2022-12-03T14:08:43.165Z,102.5
2022-12-03T14:09:43.201Z,108.357
2022-12-03T14:10:43.245Z,114.214
2022-12-03T14:11:43.294Z,114.214
2022-12-03T14:12:43.288Z,110
2022-12-03T14:13:43.316Z,110.857
2022-12-03T14:14:43.354Z,106.714
2022-12-03T14:15:43.372Z,106.714
2022-12-03T14:16:43.461Z,106.714
2022-12-03T14:17:43.425Z,106.714
2022-12-03T14:19:43.493Z,95.8571
2022-12-03T14:20:43.510Z,98.3571
2022-12-03T14:21:43.536Z,97.5
2022-12-03T14:22:43.579Z,94.2143
2022-12-03T14:23:43.596Z,90.8571
2022-12-03T14:24:43.624Z,90
2022-12-03T14:25:43.684Z,86.7143
2022-12-03T14:26:43.684Z,79.2143
2022-12-03T14:27:43.709Z,74.2143
2022-12-03T14:28:43.744Z,71.7143
2022-12-03T14:29:43.780Z,68.3571
2022-12-03T14:30:43.820Z,64.2143
2022-12-03T14:31:43.913Z,60
2022-12-03T14:32:43.860Z,56.7143
2022-12-03T14:33:43.907Z,56.7143
2022-12-03T14:34:43.931Z,55.8571
2022-12-03T14:35:43.960Z,57.5
2022-12-03T14:36:44.030Z,61.7143
2022-12-03T14:37:44.032Z,54.2143
2022-12-03T14:38:44.050Z,47.5
2022-12-03T14:39:44.078Z,44.2143
2022-12-03T14:40:44.106Z,42.5
2022-12-03T14:41:44.130Z,40.8571
2022-12-03T14:42:44.165Z,40.8571
2022-12-03T14:43:44.211Z,42.5
2022-12-03T14:44:44.238Z,41.7143
2022-12-03T14:45:44.315Z,37.5
2022-12-03T14:46:44.296Z,38.3571
2022-12-03T14:47:44.322Z,35
2022-12-03T14:48:44.396Z,32.5
2022-12-03T14:49:44.384Z,31.7143
2022-12-03T14:50:44.416Z,31.7143
2022-12-03T14:51:44.438Z,32.5
2022-12-03T14:52:44.467Z,32.5
2022-12-03T14:53:44.512Z,30
2022-12-03T14:54:44.538Z,27.5
2022-12-03T14:55:44.570Z,25
2022-12-03T14:56:44.602Z,23.3571
2022-12-03T14:57:44.628Z,20.8571
2022-12-03T14:58:44.642Z,19.2143
2022-12-03T14:59:44.677Z,15.8571
2022-12-03T15:00:44.693Z,14.2143
2022-12-03T15:01:44.820Z,12.5
2022-12-03T15:02:44.821Z,10.8571
2022-12-03T15:03:44.809Z,10
2022-12-03T15:04:44.817Z,9.21429
2022-12-03T15:05:44.862Z,7.5
2022-12-03T15:06:44.902Z,6.71429
2022-12-03T15:07:45.017Z,5.85714
2022-12-03T15:08:44.994Z,5
2022-12-03T15:09:44.991Z,5
2022-12-03T15:10:45.020Z,4.21429
2022-12-03T15:11:46.612Z,3.35714
2022-12-03T15:12:45.084Z,3.35714
2022-12-03T15:13:45.127Z,2.5
2022-12-03T15:14:45.143Z,2.5
2022-12-03T15:15:45.199Z,1.71429
2022-12-03T15:16:45.366Z,1.71429
2022-12-03T15:17:45.248Z,0.857143
2022-12-03T15:18:45.266Z,0.857143
2022-12-03T15:19:45.310Z,0.857143
